sensor_id;sensor_type;location;lat;lon;timestamp;P1;durP1;ratioP1;P2;durP2;ratioP2
72427;SDS011;60419;48.880;18.036;2023-12-22T00:02:18;2.20;;;0.93;;
72427;SDS011;60419;48.880;18.036;2023-12-22T00:05:04;1.50;;;0.82;;
72427;SDS011;60419;48.880;18.036;2023-12-22T00:07:49;1.20;;;0.93;;
72427;SDS011;60419;48.880;18.036;2023-12-22T00:10:35;2.88;;;1.00;;
72427;SDS011;60419;48.880;18.036;2023-12-22T00:13:20;1.90;;;1.00;;
72427;SDS011;60419;48.880;18.036;2023-12-22T00:16:05;2.15;;;0.90;;
72427;SDS011;60419;48.880;18.036;2023-12-22T00:18:51;1.27;;;0.70;;
72427;SDS011;60419;48.880;18.036;2023-12-22T00:21:37;0.70;;;0.60;;
72427;SDS011;60419;48.880;18.036;2023-12-22T00:24:22;1.10;;;0.63;;
72427;SDS011;60419;48.880;18.036;2023-12-22T00:27:08;0.57;;;0.57;;
72427;SDS011;60419;48.880;18.036;2023-12-22T00:29:54;2.00;;;0.70;;
72427;SDS011;60419;48.880;18.036;2023-12-22T00:32:39;3.25;;;0.70;;
72427;SDS011;60419;48.880;18.036;2023-12-22T00:35:24;2.15;;;1.00;;
72427;SDS011;60419;48.880;18.036;2023-12-22T00:38:10;3.13;;;0.80;;
72427;SDS011;60419;48.880;18.036;2023-12-22T00:40:55;1.27;;;0.73;;
72427;SDS011;60419;48.880;18.036;2023-12-22T00:43:40;2.92;;;0.70;;
72427;SDS011;60419;48.880;18.036;2023-12-22T00:46:26;4.00;;;1.00;;
72427;SDS011;60419;48.880;18.036;2023-12-22T00:49:11;1.15;;;0.65;;
72427;SDS011;60419;48.880;18.036;2023-12-22T00:51:56;3.78;;;0.80;;
72427;SDS011;60419;48.880;18.036;2023-12-22T00:54:42;3.22;;;0.80;;
72427;SDS011;60419;48.880;18.036;2023-12-22T00:57:27;2.85;;;1.35;;
72427;SDS011;60419;48.880;18.036;2023-12-22T01:00:13;2.47;;;0.88;;
72427;SDS011;60419;48.880;18.036;2023-12-22T01:02:58;2.47;;;0.98;;
72427;SDS011;60419;48.880;18.036;2023-12-22T01:05:44;3.25;;;1.00;;
72427;SDS011;60419;48.880;18.036;2023-12-22T01:08:29;3.28;;;0.90;;
72427;SDS011;60419;48.880;18.036;2023-12-22T01:11:16;2.92;;;0.90;;
72427;SDS011;60419;48.880;18.036;2023-12-22T01:14:02;2.97;;;0.80;;
72427;SDS011;60419;48.880;18.036;2023-12-22T01:16:47;1.55;;;0.80;;
72427;SDS011;60419;48.880;18.036;2023-12-22T01:19:32;2.55;;;1.00;;
72427;SDS011;60419;48.880;18.036;2023-12-22T01:22:18;2.80;;;0.90;;
72427;SDS011;60419;48.880;18.036;2023-12-22T01:25:04;1.98;;;0.88;;
72427;SDS011;60419;48.880;18.036;2023-12-22T01:27:50;3.72;;;1.00;;
72427;SDS011;60419;48.880;18.036;2023-12-22T01:30:38;1.95;;;0.90;;
72427;SDS011;60419;48.880;18.036;2023-12-22T01:33:23;2.05;;;1.00;;
72427;SDS011;60419;48.880;18.036;2023-12-22T01:36:09;2.78;;;1.00;;
72427;SDS011;60419;48.880;18.036;2023-12-22T01:38:54;4.65;;;1.30;;
72427;SDS011;60419;48.880;18.036;2023-12-22T01:41:39;2.88;;;1.10;;
72427;SDS011;60419;48.880;18.036;2023-12-22T01:44:25;4.15;;;1.38;;
72427;SDS011;60419;48.880;18.036;2023-12-22T01:47:10;6.28;;;1.15;;
72427;SDS011;60419;48.880;18.036;2023-12-22T01:49:55;4.07;;;1.00;;
72427;SDS011;60419;48.880;18.036;2023-12-22T01:52:41;6.63;;;1.42;;
72427;SDS011;60419;48.880;18.036;2023-12-22T01:55:28;5.05;;;1.00;;
72427;SDS011;60419;48.880;18.036;2023-12-22T01:58:14;3.55;;;1.25;;
72427;SDS011;60419;48.880;18.036;2023-12-22T02:00:59;5.65;;;1.40;;
72427;SDS011;60419;48.880;18.036;2023-12-22T02:03:48;4.03;;;1.25;;
72427;SDS011;60419;48.880;18.036;2023-12-22T02:06:37;5.65;;;1.30;;
72427;SDS011;60419;48.880;18.036;2023-12-22T02:09:22;4.68;;;1.38;;
72427;SDS011;60419;48.880;18.036;2023-12-22T02:12:08;4.75;;;1.30;;
72427;SDS011;60419;48.880;18.036;2023-12-22T02:14:53;3.50;;;1.23;;
72427;SDS011;60419;48.880;18.036;2023-12-22T02:17:42;3.85;;;1.35;;
72427;SDS011;60419;48.880;18.036;2023-12-22T02:20:33;4.35;;;1.15;;
72427;SDS011;60419;48.880;18.036;2023-12-22T02:23:18;4.85;;;1.15;;
72427;SDS011;60419;48.880;18.036;2023-12-22T02:26:12;4.88;;;1.35;;
72427;SDS011;60419;48.880;18.036;2023-12-22T02:29:06;3.25;;;1.00;;
72427;SDS011;60419;48.880;18.036;2023-12-22T02:31:56;2.78;;;1.00;;
72427;SDS011;60419;48.880;18.036;2023-12-22T02:34:44;5.40;;;1.20;;
72427;SDS011;60419;48.880;18.036;2023-12-22T02:37:34;5.90;;;0.98;;
72427;SDS011;60419;48.880;18.036;2023-12-22T02:40:20;2.42;;;1.30;;
72427;SDS011;60419;48.880;18.036;2023-12-22T02:43:07;4.85;;;1.00;;
72427;SDS011;60419;48.880;18.036;2023-12-22T02:45:53;4.75;;;1.10;;
72427;SDS011;60419;48.880;18.036;2023-12-22T02:48:39;6.10;;;1.38;;
72427;SDS011;60419;48.880;18.036;2023-12-22T02:51:24;4.38;;;1.10;;
72427;SDS011;60419;48.880;18.036;2023-12-22T02:54:09;5.35;;;1.13;;
72427;SDS011;60419;48.880;18.036;2023-12-22T02:56:55;5.65;;;1.35;;
72427;SDS011;60419;48.880;18.036;2023-12-22T02:59:40;3.38;;;1.00;;
72427;SDS011;60419;48.880;18.036;2023-12-22T03:02:25;5.38;;;1.30;;
72427;SDS011;60419;48.880;18.036;2023-12-22T03:05:11;6.95;;;1.23;;
72427;SDS011;60419;48.880;18.036;2023-12-22T03:07:56;6.53;;;1.60;;
72427;SDS011;60419;48.880;18.036;2023-12-22T03:10:42;3.13;;;1.10;;
72427;SDS011;60419;48.880;18.036;2023-12-22T03:13:27;4.53;;;1.58;;
72427;SDS011;60419;48.880;18.036;2023-12-22T03:16:12;3.72;;;1.27;;
72427;SDS011;60419;48.880;18.036;2023-12-22T03:18:58;6.30;;;1.52;;
72427;SDS011;60419;48.880;18.036;2023-12-22T03:21:43;4.20;;;1.30;;
72427;SDS011;60419;48.880;18.036;2023-12-22T03:24:28;5.60;;;1.50;;
72427;SDS011;60419;48.880;18.036;2023-12-22T03:27:14;4.57;;;1.25;;
72427;SDS011;60419;48.880;18.036;2023-12-22T03:30:01;6.95;;;1.40;;
72427;SDS011;60419;48.880;18.036;2023-12-22T03:32:47;10.15;;;1.45;;
72427;SDS011;60419;48.880;18.036;2023-12-22T03:35:32;7.80;;;1.40;;
72427;SDS011;60419;48.880;18.036;2023-12-22T03:38:17;4.95;;;1.33;;
72427;SDS011;60419;48.880;18.036;2023-12-22T03:41:03;7.57;;;1.60;;
72427;SDS011;60419;48.880;18.036;2023-12-22T03:43:48;7.10;;;2.17;;
72427;SDS011;60419;48.880;18.036;2023-12-22T03:46:33;7.13;;;1.83;;
72427;SDS011;60419;48.880;18.036;2023-12-22T03:49:19;9.48;;;1.20;;
72427;SDS011;60419;48.880;18.036;2023-12-22T03:52:04;8.68;;;1.92;;
72427;SDS011;60419;48.880;18.036;2023-12-22T03:54:50;4.43;;;1.30;;
72427;SDS011;60419;48.880;18.036;2023-12-22T03:57:35;7.88;;;3.10;;
72427;SDS011;60419;48.880;18.036;2023-12-22T04:00:20;5.70;;;1.30;;
72427;SDS011;60419;48.880;18.036;2023-12-22T04:03:06;6.55;;;1.20;;
72427;SDS011;60419;48.880;18.036;2023-12-22T04:05:51;4.50;;;1.27;;
72427;SDS011;60419;48.880;18.036;2023-12-22T04:08:36;7.28;;;2.15;;
72427;SDS011;60419;48.880;18.036;2023-12-22T04:11:22;7.68;;;1.30;;
72427;SDS011;60419;48.880;18.036;2023-12-22T04:14:07;6.32;;;1.40;;
72427;SDS011;60419;48.880;18.036;2023-12-22T04:16:52;5.20;;;1.20;;
72427;SDS011;60419;48.880;18.036;2023-12-22T04:19:38;5.05;;;1.13;;
72427;SDS011;60419;48.880;18.036;2023-12-22T04:22:23;4.45;;;1.25;;
72427;SDS011;60419;48.880;18.036;2023-12-22T04:25:09;7.70;;;1.75;;
72427;SDS011;60419;48.880;18.036;2023-12-22T04:27:54;4.25;;;1.48;;
72427;SDS011;60419;48.880;18.036;2023-12-22T04:30:39;5.68;;;1.40;;
72427;SDS011;60419;48.880;18.036;2023-12-22T04:33:25;4.05;;;1.52;;
72427;SDS011;60419;48.880;18.036;2023-12-22T04:36:10;5.18;;;1.35;;
72427;SDS011;60419;48.880;18.036;2023-12-22T04:38:55;5.70;;;1.60;;
72427;SDS011;60419;48.880;18.036;2023-12-22T04:41:41;6.03;;;1.45;;
72427;SDS011;60419;48.880;18.036;2023-12-22T04:44:26;9.55;;;1.58;;
72427;SDS011;60419;48.880;18.036;2023-12-22T04:47:12;4.82;;;1.88;;
72427;SDS011;60419;48.880;18.036;2023-12-22T04:49:58;5.25;;;1.63;;
72427;SDS011;60419;48.880;18.036;2023-12-22T04:52:43;6.80;;;1.80;;
72427;SDS011;60419;48.880;18.036;2023-12-22T04:55:29;4.75;;;1.95;;
72427;SDS011;60419;48.880;18.036;2023-12-22T04:58:14;12.65;;;1.85;;
72427;SDS011;60419;48.880;18.036;2023-12-22T05:01:00;4.55;;;1.52;;
72427;SDS011;60419;48.880;18.036;2023-12-22T05:03:45;8.07;;;1.95;;
72427;SDS011;60419;48.880;18.036;2023-12-22T05:06:30;5.68;;;1.55;;
72427;SDS011;60419;48.880;18.036;2023-12-22T05:09:16;8.40;;;1.70;;
72427;SDS011;60419;48.880;18.036;2023-12-22T05:12:01;8.30;;;1.85;;
72427;SDS011;60419;48.880;18.036;2023-12-22T05:14:47;7.95;;;1.65;;
72427;SDS011;60419;48.880;18.036;2023-12-22T05:17:32;6.93;;;1.77;;
72427;SDS011;60419;48.880;18.036;2023-12-22T05:20:18;4.70;;;1.38;;
72427;SDS011;60419;48.880;18.036;2023-12-22T05:23:03;8.40;;;2.20;;
72427;SDS011;60419;48.880;18.036;2023-12-22T05:25:48;6.00;;;1.60;;
72427;SDS011;60419;48.880;18.036;2023-12-22T05:28:34;3.88;;;1.70;;
72427;SDS011;60419;48.880;18.036;2023-12-22T05:31:19;6.18;;;1.90;;
72427;SDS011;60419;48.880;18.036;2023-12-22T05:34:05;5.25;;;1.83;;
72427;SDS011;60419;48.880;18.036;2023-12-22T05:36:50;10.95;;;1.95;;
72427;SDS011;60419;48.880;18.036;2023-12-22T05:39:35;6.15;;;2.15;;
72427;SDS011;60419;48.880;18.036;2023-12-22T05:42:21;4.80;;;1.30;;
72427;SDS011;60419;48.880;18.036;2023-12-22T05:45:07;5.90;;;1.60;;
72427;SDS011;60419;48.880;18.036;2023-12-22T05:47:53;9.20;;;2.58;;
72427;SDS011;60419;48.880;18.036;2023-12-22T05:50:38;6.95;;;1.63;;
72427;SDS011;60419;48.880;18.036;2023-12-22T05:53:23;9.95;;;2.22;;
72427;SDS011;60419;48.880;18.036;2023-12-22T05:56:18;9.73;;;2.22;;
72427;SDS011;60419;48.880;18.036;2023-12-22T05:59:04;11.82;;;2.38;;
72427;SDS011;60419;48.880;18.036;2023-12-22T06:01:53;6.35;;;2.15;;
72427;SDS011;60419;48.880;18.036;2023-12-22T06:04:40;9.32;;;2.22;;
72427;SDS011;60419;48.880;18.036;2023-12-22T06:07:25;8.32;;;1.90;;
72427;SDS011;60419;48.880;18.036;2023-12-22T06:10:11;9.32;;;2.78;;
72427;SDS011;60419;48.880;18.036;2023-12-22T06:12:57;8.52;;;1.95;;
72427;SDS011;60419;48.880;18.036;2023-12-22T06:15:42;7.68;;;1.77;;
72427;SDS011;60419;48.880;18.036;2023-12-22T06:18:28;8.45;;;1.52;;
72427;SDS011;60419;48.880;18.036;2023-12-22T06:21:13;8.52;;;2.05;;
72427;SDS011;60419;48.880;18.036;2023-12-22T06:24:00;10.15;;;1.85;;
72427;SDS011;60419;48.880;18.036;2023-12-22T06:26:45;10.13;;;2.20;;
72427;SDS011;60419;48.880;18.036;2023-12-22T06:29:30;6.95;;;1.85;;
72427;SDS011;60419;48.880;18.036;2023-12-22T06:32:16;10.57;;;2.13;;
72427;SDS011;60419;48.880;18.036;2023-12-22T06:35:02;8.45;;;1.95;;
72427;SDS011;60419;48.880;18.036;2023-12-22T06:37:48;5.20;;;1.67;;
72427;SDS011;60419;48.880;18.036;2023-12-22T06:40:36;10.02;;;1.67;;
72427;SDS011;60419;48.880;18.036;2023-12-22T06:43:22;10.07;;;2.05;;
72427;SDS011;60419;48.880;18.036;2023-12-22T06:46:14;7.57;;;1.88;;
72427;SDS011;60419;48.880;18.036;2023-12-22T06:49:10;9.70;;;2.28;;
72427;SDS011;60419;48.880;18.036;2023-12-22T06:51:56;8.77;;;2.35;;
72427;SDS011;60419;48.880;18.036;2023-12-22T06:54:41;6.30;;;1.80;;
72427;SDS011;60419;48.880;18.036;2023-12-22T06:57:26;10.85;;;2.30;;
72427;SDS011;60419;48.880;18.036;2023-12-22T07:00:12;11.43;;;2.40;;
72427;SDS011;60419;48.880;18.036;2023-12-22T07:02:58;7.47;;;2.30;;
72427;SDS011;60419;48.880;18.036;2023-12-22T07:05:43;7.38;;;2.22;;
72427;SDS011;60419;48.880;18.036;2023-12-22T07:08:29;9.00;;;2.08;;
72427;SDS011;60419;48.880;18.036;2023-12-22T07:11:14;9.52;;;2.67;;
72427;SDS011;60419;48.880;18.036;2023-12-22T07:14:00;7.30;;;2.00;;
72427;SDS011;60419;48.880;18.036;2023-12-22T07:16:45;7.35;;;1.75;;
72427;SDS011;60419;48.880;18.036;2023-12-22T07:19:31;8.70;;;2.85;;
72427;SDS011;60419;48.880;18.036;2023-12-22T07:22:17;9.90;;;2.35;;
72427;SDS011;60419;48.880;18.036;2023-12-22T07:25:02;7.85;;;2.38;;
72427;SDS011;60419;48.880;18.036;2023-12-22T07:27:48;11.75;;;1.95;;
72427;SDS011;60419;48.880;18.036;2023-12-22T07:30:34;10.90;;;2.45;;
72427;SDS011;60419;48.880;18.036;2023-12-22T07:33:20;8.95;;;2.42;;
72427;SDS011;60419;48.880;18.036;2023-12-22T07:36:05;8.05;;;1.90;;
72427;SDS011;60419;48.880;18.036;2023-12-22T07:38:51;10.68;;;2.90;;
72427;SDS011;60419;48.880;18.036;2023-12-22T07:41:36;7.10;;;2.00;;
72427;SDS011;60419;48.880;18.036;2023-12-22T07:44:22;7.03;;;1.98;;
72427;SDS011;60419;48.880;18.036;2023-12-22T07:47:07;11.60;;;2.53;;
72427;SDS011;60419;48.880;18.036;2023-12-22T07:49:54;10.98;;;2.78;;
72427;SDS011;60419;48.880;18.036;2023-12-22T07:52:39;7.57;;;2.70;;
72427;SDS011;60419;48.880;18.036;2023-12-22T07:55:25;8.75;;;2.22;;
72427;SDS011;60419;48.880;18.036;2023-12-22T07:58:10;10.07;;;2.25;;
72427;SDS011;60419;48.880;18.036;2023-12-22T08:00:56;8.52;;;2.92;;
72427;SDS011;60419;48.880;18.036;2023-12-22T08:03:41;7.03;;;1.92;;
72427;SDS011;60419;48.880;18.036;2023-12-22T08:06:26;9.63;;;1.58;;
72427;SDS011;60419;48.880;18.036;2023-12-22T08:09:12;7.45;;;2.00;;
72427;SDS011;60419;48.880;18.036;2023-12-22T08:11:57;9.18;;;3.03;;
72427;SDS011;60419;48.880;18.036;2023-12-22T08:14:42;10.95;;;3.00;;
72427;SDS011;60419;48.880;18.036;2023-12-22T08:17:28;7.18;;;2.03;;
72427;SDS011;60419;48.880;18.036;2023-12-22T08:20:20;6.32;;;2.20;;
72427;SDS011;60419;48.880;18.036;2023-12-22T08:23:06;8.70;;;2.75;;
72427;SDS011;60419;48.880;18.036;2023-12-22T08:25:51;8.70;;;2.25;;
72427;SDS011;60419;48.880;18.036;2023-12-22T08:28:37;4.05;;;1.52;;
72427;SDS011;60419;48.880;18.036;2023-12-22T08:31:23;10.93;;;2.70;;
72427;SDS011;60419;48.880;18.036;2023-12-22T08:34:08;7.15;;;2.40;;
72427;SDS011;60419;48.880;18.036;2023-12-22T08:36:54;7.50;;;2.22;;
72427;SDS011;60419;48.880;18.036;2023-12-22T08:39:39;8.52;;;2.00;;
72427;SDS011;60419;48.880;18.036;2023-12-22T08:42:25;9.73;;;2.45;;
72427;SDS011;60419;48.880;18.036;2023-12-22T08:45:11;6.78;;;1.63;;
72427;SDS011;60419;48.880;18.036;2023-12-22T08:47:57;8.75;;;1.98;;
72427;SDS011;60419;48.880;18.036;2023-12-22T08:50:43;7.53;;;1.88;;
72427;SDS011;60419;48.880;18.036;2023-12-22T08:53:28;6.53;;;1.50;;
72427;SDS011;60419;48.880;18.036;2023-12-22T08:56:18;8.50;;;2.00;;
72427;SDS011;60419;48.880;18.036;2023-12-22T08:59:05;6.95;;;2.00;;
72427;SDS011;60419;48.880;18.036;2023-12-22T09:01:53;3.60;;;1.50;;
72427;SDS011;60419;48.880;18.036;2023-12-22T09:04:39;5.53;;;1.50;;
72427;SDS011;60419;48.880;18.036;2023-12-22T09:07:24;5.15;;;1.02;;
72427;SDS011;60419;48.880;18.036;2023-12-22T09:10:09;3.72;;;1.30;;
72427;SDS011;60419;48.880;18.036;2023-12-22T09:12:57;5.43;;;1.42;;
72427;SDS011;60419;48.880;18.036;2023-12-22T09:15:43;9.30;;;1.83;;
72427;SDS011;60419;48.880;18.036;2023-12-22T09:18:31;5.50;;;1.40;;
72427;SDS011;60419;48.880;18.036;2023-12-22T09:21:17;9.30;;;2.35;;
72427;SDS011;60419;48.880;18.036;2023-12-22T09:24:03;6.07;;;1.50;;
72427;SDS011;60419;48.880;18.036;2023-12-22T09:26:50;10.77;;;1.90;;
72427;SDS011;60419;48.880;18.036;2023-12-22T09:29:36;9.88;;;1.90;;
72427;SDS011;60419;48.880;18.036;2023-12-22T09:32:22;4.72;;;1.48;;
72427;SDS011;60419;48.880;18.036;2023-12-22T09:35:07;6.30;;;1.23;;
72427;SDS011;60419;48.880;18.036;2023-12-22T09:37:53;7.75;;;1.48;;
72427;SDS011;60419;48.880;18.036;2023-12-22T09:40:38;6.80;;;1.70;;
72427;SDS011;60419;48.880;18.036;2023-12-22T09:43:24;5.90;;;1.73;;
72427;SDS011;60419;48.880;18.036;2023-12-22T09:46:09;3.60;;;1.30;;
72427;SDS011;60419;48.880;18.036;2023-12-22T09:48:56;6.07;;;1.48;;
72427;SDS011;60419;48.880;18.036;2023-12-22T09:51:43;5.57;;;1.30;;
72427;SDS011;60419;48.880;18.036;2023-12-22T09:54:30;4.57;;;1.35;;
72427;SDS011;60419;48.880;18.036;2023-12-22T09:57:16;4.13;;;1.33;;
72427;SDS011;60419;48.880;18.036;2023-12-22T10:00:02;5.55;;;1.50;;
72427;SDS011;60419;48.880;18.036;2023-12-22T10:02:51;4.95;;;1.50;;
72427;SDS011;60419;48.880;18.036;2023-12-22T10:05:36;2.72;;;1.30;;
72427;SDS011;60419;48.880;18.036;2023-12-22T10:08:22;3.05;;;1.10;;
72427;SDS011;60419;48.880;18.036;2023-12-22T10:11:08;7.45;;;1.45;;
72427;SDS011;60419;48.880;18.036;2023-12-22T10:13:53;5.43;;;2.10;;
72427;SDS011;60419;48.880;18.036;2023-12-22T10:16:40;6.03;;;1.58;;
72427;SDS011;60419;48.880;18.036;2023-12-22T10:19:25;4.53;;;1.40;;
72427;SDS011;60419;48.880;18.036;2023-12-22T10:22:11;4.03;;;1.00;;
72427;SDS011;60419;48.880;18.036;2023-12-22T10:24:56;3.67;;;1.27;;
72427;SDS011;60419;48.880;18.036;2023-12-22T10:27:42;2.72;;;1.30;;
72427;SDS011;60419;48.880;18.036;2023-12-22T10:30:28;6.40;;;1.45;;
72427;SDS011;60419;48.880;18.036;2023-12-22T10:33:13;4.05;;;1.20;;
72427;SDS011;60419;48.880;18.036;2023-12-22T10:35:59;3.65;;;1.15;;
72427;SDS011;60419;48.880;18.036;2023-12-22T10:38:45;3.20;;;1.08;;
72427;SDS011;60419;48.880;18.036;2023-12-22T10:41:30;2.67;;;0.85;;
72427;SDS011;60419;48.880;18.036;2023-12-22T10:44:16;4.93;;;1.30;;
72427;SDS011;60419;48.880;18.036;2023-12-22T10:47:02;4.60;;;1.35;;
72427;SDS011;60419;48.880;18.036;2023-12-22T10:49:48;3.10;;;1.02;;
72427;SDS011;60419;48.880;18.036;2023-12-22T10:52:34;3.13;;;0.90;;
72427;SDS011;60419;48.880;18.036;2023-12-22T10:55:19;6.68;;;1.23;;
72427;SDS011;60419;48.880;18.036;2023-12-22T10:58:05;5.20;;;1.42;;
72427;SDS011;60419;48.880;18.036;2023-12-22T11:00:51;2.42;;;1.20;;
72427;SDS011;60419;48.880;18.036;2023-12-22T11:03:38;3.53;;;1.20;;
72427;SDS011;60419;48.880;18.036;2023-12-22T11:06:24;4.72;;;1.42;;
72427;SDS011;60419;48.880;18.036;2023-12-22T11:09:12;4.55;;;1.10;;
72427;SDS011;60419;48.880;18.036;2023-12-22T11:12:01;2.97;;;1.23;;
72427;SDS011;60419;48.880;18.036;2023-12-22T11:14:48;3.08;;;1.20;;
72427;SDS011;60419;48.880;18.036;2023-12-22T11:17:36;4.32;;;1.55;;
72427;SDS011;60419;48.880;18.036;2023-12-22T11:20:25;5.70;;;1.23;;
72427;SDS011;60419;48.880;18.036;2023-12-22T11:23:13;3.30;;;1.38;;
72427;SDS011;60419;48.880;18.036;2023-12-22T11:26:01;3.95;;;1.40;;
72427;SDS011;60419;48.880;18.036;2023-12-22T11:28:50;6.20;;;1.73;;
72427;SDS011;60419;48.880;18.036;2023-12-22T11:31:37;3.33;;;1.25;;
72427;SDS011;60419;48.880;18.036;2023-12-22T11:34:23;4.10;;;1.10;;
72427;SDS011;60419;48.880;18.036;2023-12-22T11:37:11;6.28;;;2.00;;
72427;SDS011;60419;48.880;18.036;2023-12-22T11:39:58;3.60;;;1.33;;
72427;SDS011;60419;48.880;18.036;2023-12-22T11:42:45;3.20;;;1.33;;
72427;SDS011;60419;48.880;18.036;2023-12-22T11:45:33;4.20;;;1.30;;
72427;SDS011;60419;48.880;18.036;2023-12-22T11:48:19;6.13;;;1.40;;
72427;SDS011;60419;48.880;18.036;2023-12-22T11:51:15;4.68;;;1.23;;
72427;SDS011;60419;48.880;18.036;2023-12-22T11:54:01;3.20;;;1.15;;
72427;SDS011;60419;48.880;18.036;2023-12-22T11:56:47;5.38;;;2.10;;
72427;SDS011;60419;48.880;18.036;2023-12-22T11:59:33;3.40;;;1.08;;
72427;SDS011;60419;48.880;18.036;2023-12-22T12:02:18;2.13;;;0.95;;
72427;SDS011;60419;48.880;18.036;2023-12-22T12:05:04;3.10;;;1.45;;
72427;SDS011;60419;48.880;18.036;2023-12-22T12:07:52;3.72;;;0.90;;
72427;SDS011;60419;48.880;18.036;2023-12-22T12:10:51;2.50;;;0.90;;
72427;SDS011;60419;48.880;18.036;2023-12-22T12:13:41;1.05;;;0.70;;
72427;SDS011;60419;48.880;18.036;2023-12-22T12:16:28;1.08;;;0.70;;
72427;SDS011;60419;48.880;18.036;2023-12-22T12:19:14;1.75;;;0.77;;
72427;SDS011;60419;48.880;18.036;2023-12-22T12:22:00;0.77;;;0.70;;
72427;SDS011;60419;48.880;18.036;2023-12-22T12:24:46;1.20;;;0.70;;
72427;SDS011;60419;48.880;18.036;2023-12-22T12:27:31;2.67;;;0.73;;
72427;SDS011;60419;48.880;18.036;2023-12-22T12:30:19;1.95;;;1.02;;
72427;SDS011;60419;48.880;18.036;2023-12-22T12:33:06;2.75;;;0.80;;
72427;SDS011;60419;48.880;18.036;2023-12-22T12:35:56;1.48;;;0.98;;
72427;SDS011;60419;48.880;18.036;2023-12-22T12:41:31;2.22;;;1.00;;
72427;SDS011;60419;48.880;18.036;2023-12-22T12:44:17;1.98;;;1.10;;
72427;SDS011;60419;48.880;18.036;2023-12-22T12:47:11;2.33;;;1.10;;
72427;SDS011;60419;48.880;18.036;2023-12-22T12:49:58;1.58;;;1.00;;
72427;SDS011;60419;48.880;18.036;2023-12-22T12:52:44;1.55;;;1.00;;
72427;SDS011;60419;48.880;18.036;2023-12-22T12:55:30;1.80;;;1.10;;
72427;SDS011;60419;48.880;18.036;2023-12-22T12:58:15;2.97;;;1.13;;
72427;SDS011;60419;48.880;18.036;2023-12-22T13:01:07;1.92;;;1.23;;
72427;SDS011;60419;48.880;18.036;2023-12-22T13:03:55;3.80;;;1.30;;
72427;SDS011;60419;48.880;18.036;2023-12-22T13:06:50;2.42;;;1.10;;
72427;SDS011;60419;48.880;18.036;2023-12-22T13:09:36;3.42;;;1.08;;
72427;SDS011;60419;48.880;18.036;2023-12-22T13:12:24;3.05;;;1.13;;
72427;SDS011;60419;48.880;18.036;2023-12-22T13:15:11;2.60;;;1.23;;
72427;SDS011;60419;48.880;18.036;2023-12-22T13:17:56;3.38;;;1.00;;
72427;SDS011;60419;48.880;18.036;2023-12-22T13:20:42;5.28;;;1.05;;
72427;SDS011;60419;48.880;18.036;2023-12-22T13:23:28;2.63;;;1.27;;
72427;SDS011;60419;48.880;18.036;2023-12-22T13:26:19;3.40;;;1.25;;
72427;SDS011;60419;48.880;18.036;2023-12-22T13:29:06;3.28;;;1.20;;
72427;SDS011;60419;48.880;18.036;2023-12-22T13:31:51;1.33;;;0.80;;
72427;SDS011;60419;48.880;18.036;2023-12-22T13:34:37;2.63;;;0.93;;
72427;SDS011;60419;48.880;18.036;2023-12-22T13:37:22;3.45;;;1.20;;
72427;SDS011;60419;48.880;18.036;2023-12-22T13:40:11;2.00;;;1.02;;
72427;SDS011;60419;48.880;18.036;2023-12-22T13:42:57;1.67;;;0.98;;
72427;SDS011;60419;48.880;18.036;2023-12-22T13:45:43;2.30;;;0.85;;
72427;SDS011;60419;48.880;18.036;2023-12-22T13:48:36;2.38;;;0.90;;
72427;SDS011;60419;48.880;18.036;2023-12-22T13:51:21;11.25;;;2.00;;
72427;SDS011;60419;48.880;18.036;2023-12-22T13:54:07;2.10;;;0.90;;
72427;SDS011;60419;48.880;18.036;2023-12-22T13:56:53;2.63;;;0.90;;
72427;SDS011;60419;48.880;18.036;2023-12-22T13:59:38;3.53;;;1.50;;
72427;SDS011;60419;48.880;18.036;2023-12-22T14:02:24;5.32;;;1.63;;
72427;SDS011;60419;48.880;18.036;2023-12-22T14:05:09;2.50;;;1.17;;
72427;SDS011;60419;48.880;18.036;2023-12-22T14:07:55;3.13;;;1.25;;
72427;SDS011;60419;48.880;18.036;2023-12-22T14:10:47;1.98;;;1.08;;
72427;SDS011;60419;48.880;18.036;2023-12-22T14:13:33;2.00;;;1.02;;
72427;SDS011;60419;48.880;18.036;2023-12-22T14:16:23;1.27;;;0.80;;
72427;SDS011;60419;48.880;18.036;2023-12-22T14:19:09;3.70;;;1.20;;
72427;SDS011;60419;48.880;18.036;2023-12-22T14:21:54;1.63;;;0.93;;
72427;SDS011;60419;48.880;18.036;2023-12-22T14:24:40;2.83;;;0.98;;
72427;SDS011;60419;48.880;18.036;2023-12-22T14:27:25;2.75;;;1.55;;
72427;SDS011;60419;48.880;18.036;2023-12-22T14:30:11;2.78;;;1.20;;
72427;SDS011;60419;48.880;18.036;2023-12-22T14:32:56;2.55;;;1.20;;
72427;SDS011;60419;48.880;18.036;2023-12-22T14:35:42;3.13;;;1.20;;
72427;SDS011;60419;48.880;18.036;2023-12-22T14:38:27;3.28;;;1.45;;
72427;SDS011;60419;48.880;18.036;2023-12-22T14:41:12;3.45;;;1.23;;
72427;SDS011;60419;48.880;18.036;2023-12-22T14:43:58;1.75;;;1.30;;
72427;SDS011;60419;48.880;18.036;2023-12-22T14:46:43;2.03;;;0.90;;
72427;SDS011;60419;48.880;18.036;2023-12-22T14:49:30;4.20;;;1.55;;
72427;SDS011;60419;48.880;18.036;2023-12-22T14:52:15;4.18;;;2.20;;
72427;SDS011;60419;48.880;18.036;2023-12-22T14:55:01;3.25;;;1.65;;
72427;SDS011;60419;48.880;18.036;2023-12-22T14:57:47;1.77;;;1.30;;
72427;SDS011;60419;48.880;18.036;2023-12-22T15:00:33;3.03;;;1.40;;
72427;SDS011;60419;48.880;18.036;2023-12-22T15:03:18;6.60;;;2.95;;
72427;SDS011;60419;48.880;18.036;2023-12-22T15:06:03;5.20;;;1.77;;
72427;SDS011;60419;48.880;18.036;2023-12-22T15:08:49;5.78;;;1.80;;
72427;SDS011;60419;48.880;18.036;2023-12-22T15:11:40;4.75;;;1.67;;
72427;SDS011;60419;48.880;18.036;2023-12-22T15:14:27;3.20;;;1.40;;
72427;SDS011;60419;48.880;18.036;2023-12-22T15:17:13;1.65;;;1.10;;
72427;SDS011;60419;48.880;18.036;2023-12-22T15:19:59;4.18;;;1.30;;
72427;SDS011;60419;48.880;18.036;2023-12-22T15:22:44;2.78;;;1.35;;
72427;SDS011;60419;48.880;18.036;2023-12-22T15:25:29;4.63;;;1.20;;
72427;SDS011;60419;48.880;18.036;2023-12-22T15:28:15;2.92;;;1.05;;
72427;SDS011;60419;48.880;18.036;2023-12-22T15:31:00;2.53;;;1.25;;
72427;SDS011;60419;48.880;18.036;2023-12-22T15:33:46;3.42;;;1.15;;
72427;SDS011;60419;48.880;18.036;2023-12-22T15:36:31;3.38;;;1.10;;
72427;SDS011;60419;48.880;18.036;2023-12-22T15:39:16;3.65;;;1.20;;
72427;SDS011;60419;48.880;18.036;2023-12-22T15:42:02;3.00;;;1.17;;
72427;SDS011;60419;48.880;18.036;2023-12-22T15:44:47;2.33;;;1.10;;
72427;SDS011;60419;48.880;18.036;2023-12-22T15:47:33;5.57;;;1.40;;
72427;SDS011;60419;48.880;18.036;2023-12-22T15:50:18;3.92;;;1.30;;
72427;SDS011;60419;48.880;18.036;2023-12-22T15:53:04;4.20;;;1.35;;
72427;SDS011;60419;48.880;18.036;2023-12-22T15:55:49;3.53;;;1.05;;
72427;SDS011;60419;48.880;18.036;2023-12-22T15:58:35;5.57;;;1.60;;
72427;SDS011;60419;48.880;18.036;2023-12-22T16:01:21;5.30;;;1.67;;
72427;SDS011;60419;48.880;18.036;2023-12-22T16:04:07;4.97;;;1.50;;
72427;SDS011;60419;48.880;18.036;2023-12-22T16:06:52;6.35;;;1.77;;
72427;SDS011;60419;48.880;18.036;2023-12-22T16:09:38;5.70;;;1.40;;
72427;SDS011;60419;48.880;18.036;2023-12-22T16:12:23;4.95;;;1.40;;
72427;SDS011;60419;48.880;18.036;2023-12-22T16:15:08;4.80;;;1.70;;
72427;SDS011;60419;48.880;18.036;2023-12-22T16:17:55;6.45;;;1.25;;
72427;SDS011;60419;48.880;18.036;2023-12-22T16:20:41;4.45;;;1.25;;
72427;SDS011;60419;48.880;18.036;2023-12-22T16:23:26;5.00;;;1.67;;
72427;SDS011;60419;48.880;18.036;2023-12-22T16:26:11;5.35;;;1.42;;
72427;SDS011;60419;48.880;18.036;2023-12-22T16:28:57;7.05;;;1.45;;